sensor_id;sensor_type;location;lat;lon;timestamp;P1;durP1;ratioP1;P2;durP2;ratioP2
9997;SDS011;5038;53.064;8.624;2023-03-23T00:00:19;23.60;;;21.70;;
9997;SDS011;5038;53.064;8.624;2023-03-23T00:02:46;25.70;;;23.50;;
9997;SDS011;5038;53.064;8.624;2023-03-23T00:05:13;23.10;;;21.10;;
9997;SDS011;5038;53.064;8.624;2023-03-23T00:07:41;22.53;;;20.60;;
9997;SDS011;5038;53.064;8.624;2023-03-23T00:10:10;23.30;;;21.30;;
9997;SDS011;5038;53.064;8.624;2023-03-23T00:12:37;24.17;;;22.17;;
9997;SDS011;5038;53.064;8.624;2023-03-23T00:15:07;22.40;;;20.53;;
9997;SDS011;5038;53.064;8.624;2023-03-23T00:17:39;23.53;;;21.57;;
9997;SDS011;5038;53.064;8.624;2023-03-23T00:20:09;24.17;;;22.07;;
9997;SDS011;5038;53.064;8.624;2023-03-23T00:22:37;23.80;;;21.80;;
9997;SDS011;5038;53.064;8.624;2023-03-23T00:25:06;24.23;;;22.30;;
9997;SDS011;5038;53.064;8.624;2023-03-23T00:27:34;24.20;;;22.20;;
9997;SDS011;5038;53.064;8.624;2023-03-23T00:30:01;24.50;;;22.30;;
9997;SDS011;5038;53.064;8.624;2023-03-23T00:32:29;24.40;;;22.27;;
9997;SDS011;5038;53.064;8.624;2023-03-23T00:34:57;25.20;;;22.97;;
9997;SDS011;5038;53.064;8.624;2023-03-23T00:37:25;24.27;;;22.17;;
9997;SDS011;5038;53.064;8.624;2023-03-23T00:39:52;24.77;;;22.57;;
9997;SDS011;5038;53.064;8.624;2023-03-23T00:42:22;25.07;;;22.90;;
9997;SDS011;5038;53.064;8.624;2023-03-23T00:44:50;25.03;;;22.93;;
9997;SDS011;5038;53.064;8.624;2023-03-23T00:47:19;24.57;;;22.50;;
9997;SDS011;5038;53.064;8.624;2023-03-23T00:49:46;24.27;;;22.17;;
9997;SDS011;5038;53.064;8.624;2023-03-23T00:52:17;23.43;;;21.53;;
9997;SDS011;5038;53.064;8.624;2023-03-23T00:54:44;25.20;;;23.10;;
9997;SDS011;5038;53.064;8.624;2023-03-23T00:57:14;25.07;;;22.80;;
9997;SDS011;5038;53.064;8.624;2023-03-23T00:59:43;24.83;;;22.70;;
9997;SDS011;5038;53.064;8.624;2023-03-23T01:02:14;24.50;;;22.30;;
9997;SDS011;5038;53.064;8.624;2023-03-23T01:04:44;24.60;;;22.60;;
9997;SDS011;5038;53.064;8.624;2023-03-23T01:07:18;25.03;;;22.93;;
9997;SDS011;5038;53.064;8.624;2023-03-23T01:09:49;24.67;;;22.47;;
9997;SDS011;5038;53.064;8.624;2023-03-23T01:12:19;24.60;;;22.30;;
9997;SDS011;5038;53.064;8.624;2023-03-23T01:14:49;25.43;;;23.27;;
9997;SDS011;5038;53.064;8.624;2023-03-23T01:17:16;27.60;;;25.20;;
9997;SDS011;5038;53.064;8.624;2023-03-23T01:19:44;24.87;;;22.77;;
9997;SDS011;5038;53.064;8.624;2023-03-23T01:22:11;24.17;;;21.97;;
9997;SDS011;5038;53.064;8.624;2023-03-23T01:24:40;26.30;;;24.10;;
9997;SDS011;5038;53.064;8.624;2023-03-23T01:27:07;27.10;;;24.90;;
9997;SDS011;5038;53.064;8.624;2023-03-23T01:29:35;25.63;;;23.53;;
9997;SDS011;5038;53.064;8.624;2023-03-23T01:32:02;26.50;;;24.00;;
9997;SDS011;5038;53.064;8.624;2023-03-23T01:34:30;26.83;;;24.27;;
9997;SDS011;5038;53.064;8.624;2023-03-23T01:36:57;26.20;;;24.00;;
9997;SDS011;5038;53.064;8.624;2023-03-23T01:39:24;26.13;;;24.00;;
9997;SDS011;5038;53.064;8.624;2023-03-23T01:41:53;26.30;;;24.20;;
9997;SDS011;5038;53.064;8.624;2023-03-23T01:47:47;26.03;;;23.93;;
9997;SDS011;5038;53.064;8.624;2023-03-23T01:50:18;26.77;;;24.60;;
9997;SDS011;5038;53.064;8.624;2023-03-23T01:52:48;26.07;;;23.70;;
9997;SDS011;5038;53.064;8.624;2023-03-23T01:55:17;27.33;;;24.93;;
9997;SDS011;5038;53.064;8.624;2023-03-23T01:57:46;27.20;;;24.90;;
9997;SDS011;5038;53.064;8.624;2023-03-23T02:00:15;28.30;;;25.80;;
9997;SDS011;5038;53.064;8.624;2023-03-23T02:02:50;27.33;;;24.90;;
9997;SDS011;5038;53.064;8.624;2023-03-23T02:05:23;28.20;;;25.80;;
9997;SDS011;5038;53.064;8.624;2023-03-23T02:07:57;28.47;;;26.00;;
9997;SDS011;5038;53.064;8.624;2023-03-23T02:10:31;28.60;;;26.13;;
9997;SDS011;5038;53.064;8.624;2023-03-23T02:13:02;25.90;;;23.60;;
9997;SDS011;5038;53.064;8.624;2023-03-23T02:15:33;26.93;;;24.53;;
9997;SDS011;5038;53.064;8.624;2023-03-23T02:18:08;26.57;;;24.17;;
9997;SDS011;5038;53.064;8.624;2023-03-23T02:20:52;26.03;;;23.50;;
9997;SDS011;5038;53.064;8.624;2023-03-23T02:26:43;27.63;;;25.13;;
9997;SDS011;5038;53.064;8.624;2023-03-23T02:29:32;27.27;;;24.87;;
9997;SDS011;5038;53.064;8.624;2023-03-23T02:32:23;27.60;;;25.13;;
9997;SDS011;5038;53.064;8.624;2023-03-23T02:35:06;26.70;;;24.50;;
9997;SDS011;5038;53.064;8.624;2023-03-23T02:37:39;26.10;;;23.80;;
9997;SDS011;5038;53.064;8.624;2023-03-23T02:40:13;27.23;;;25.00;;
9997;SDS011;5038;53.064;8.624;2023-03-23T02:42:46;26.30;;;24.10;;
9997;SDS011;5038;53.064;8.624;2023-03-23T02:45:16;25.53;;;23.33;;
9997;SDS011;5038;53.064;8.624;2023-03-23T02:47:46;26.10;;;23.70;;
9997;SDS011;5038;53.064;8.624;2023-03-23T02:50:19;25.90;;;23.70;;
9997;SDS011;5038;53.064;8.624;2023-03-23T02:52:48;25.03;;;23.03;;
9997;SDS011;5038;53.064;8.624;2023-03-23T02:55:16;25.57;;;23.47;;
9997;SDS011;5038;53.064;8.624;2023-03-23T02:57:46;25.87;;;23.73;;
9997;SDS011;5038;53.064;8.624;2023-03-23T03:00:15;24.60;;;22.50;;
9997;SDS011;5038;53.064;8.624;2023-03-23T03:02:47;24.30;;;22.07;;
9997;SDS011;5038;53.064;8.624;2023-03-23T03:05:22;23.83;;;21.70;;
9997;SDS011;5038;53.064;8.624;2023-03-23T03:08:00;22.97;;;21.03;;
9997;SDS011;5038;53.064;8.624;2023-03-23T03:10:39;23.17;;;21.27;;
9997;SDS011;5038;53.064;8.624;2023-03-23T03:13:16;21.30;;;19.60;;
9997;SDS011;5038;53.064;8.624;2023-03-23T03:15:53;21.37;;;19.53;;
9997;SDS011;5038;53.064;8.624;2023-03-23T03:18:26;21.20;;;19.30;;
9997;SDS011;5038;53.064;8.624;2023-03-23T03:20:59;20.90;;;19.07;;
9997;SDS011;5038;53.064;8.624;2023-03-23T03:23:31;21.80;;;19.90;;
9997;SDS011;5038;53.064;8.624;2023-03-23T03:26:02;19.27;;;17.47;;
9997;SDS011;5038;53.064;8.624;2023-03-23T03:28:43;22.13;;;20.23;;
9997;SDS011;5038;53.064;8.624;2023-03-23T03:31:14;19.97;;;18.27;;
9997;SDS011;5038;53.064;8.624;2023-03-23T03:33:45;19.60;;;17.90;;
9997;SDS011;5038;53.064;8.624;2023-03-23T03:36:18;18.93;;;17.30;;
9997;SDS011;5038;53.064;8.624;2023-03-23T03:38:50;19.03;;;17.43;;
9997;SDS011;5038;53.064;8.624;2023-03-23T03:41:19;18.50;;;16.80;;
9997;SDS011;5038;53.064;8.624;2023-03-23T03:43:47;18.43;;;16.73;;
9997;SDS011;5038;53.064;8.624;2023-03-23T03:46:14;18.10;;;16.60;;
9997;SDS011;5038;53.064;8.624;2023-03-23T03:48:41;18.00;;;16.50;;
9997;SDS011;5038;53.064;8.624;2023-03-23T03:51:09;17.77;;;16.23;;
9997;SDS011;5038;53.064;8.624;2023-03-23T03:53:42;18.40;;;16.83;;
9997;SDS011;5038;53.064;8.624;2023-03-23T03:56:09;18.80;;;17.20;;
9997;SDS011;5038;53.064;8.624;2023-03-23T03:58:43;18.83;;;17.23;;
9997;SDS011;5038;53.064;8.624;2023-03-23T04:02:16;18.47;;;16.90;;
9997;SDS011;5038;53.064;8.624;2023-03-23T04:05:03;18.03;;;16.40;;
9997;SDS011;5038;53.064;8.624;2023-03-23T04:07:32;18.10;;;16.57;;
9997;SDS011;5038;53.064;8.624;2023-03-23T04:10:00;19.10;;;17.20;;
9997;SDS011;5038;53.064;8.624;2023-03-23T04:12:29;19.13;;;16.90;;
9997;SDS011;5038;53.064;8.624;2023-03-23T04:14:56;18.30;;;16.70;;
9997;SDS011;5038;53.064;8.624;2023-03-23T04:17:31;16.40;;;14.90;;
9997;SDS011;5038;53.064;8.624;2023-03-23T04:19:59;17.40;;;15.70;;
9997;SDS011;5038;53.064;8.624;2023-03-23T04:22:32;15.90;;;14.40;;
9997;SDS011;5038;53.064;8.624;2023-03-23T04:25:02;17.60;;;16.00;;
9997;SDS011;5038;53.064;8.624;2023-03-23T04:27:34;15.20;;;13.90;;
9997;SDS011;5038;53.064;8.624;2023-03-23T04:30:05;13.90;;;12.60;;
9997;SDS011;5038;53.064;8.624;2023-03-23T04:32:48;14.50;;;13.20;;
9997;SDS011;5038;53.064;8.624;2023-03-23T04:35:21;15.70;;;12.87;;
9997;SDS011;5038;53.064;8.624;2023-03-23T04:38:02;13.00;;;11.90;;
9997;SDS011;5038;53.064;8.624;2023-03-23T04:40:31;13.57;;;12.13;;
9997;SDS011;5038;53.064;8.624;2023-03-23T04:43:11;13.03;;;11.80;;
9997;SDS011;5038;53.064;8.624;2023-03-23T04:45:52;11.70;;;10.70;;
9997;SDS011;5038;53.064;8.624;2023-03-23T04:48:22;12.37;;;11.17;;
9997;SDS011;5038;53.064;8.624;2023-03-23T04:51:00;12.60;;;11.37;;
9997;SDS011;5038;53.064;8.624;2023-03-23T04:53:28;12.07;;;10.50;;
9997;SDS011;5038;53.064;8.624;2023-03-23T04:55:57;12.70;;;11.40;;
9997;SDS011;5038;53.064;8.624;2023-03-23T04:58:29;11.47;;;10.30;;
9997;SDS011;5038;53.064;8.624;2023-03-23T05:01:21;11.80;;;10.60;;
9997;SDS011;5038;53.064;8.624;2023-03-23T05:03:59;12.17;;;11.07;;
9997;SDS011;5038;53.064;8.624;2023-03-23T05:06:27;12.17;;;11.07;;
9997;SDS011;5038;53.064;8.624;2023-03-23T05:09:01;13.03;;;11.73;;
9997;SDS011;5038;53.064;8.624;2023-03-23T05:11:31;11.93;;;10.77;;
9997;SDS011;5038;53.064;8.624;2023-03-23T05:13:58;12.10;;;11.00;;
9997;SDS011;5038;53.064;8.624;2023-03-23T05:16:25;11.87;;;10.67;;
9997;SDS011;5038;53.064;8.624;2023-03-23T05:18:54;12.50;;;11.20;;
9997;SDS011;5038;53.064;8.624;2023-03-23T05:21:23;11.20;;;10.10;;
9997;SDS011;5038;53.064;8.624;2023-03-23T05:23:53;12.83;;;10.70;;
9997;SDS011;5038;53.064;8.624;2023-03-23T05:26:22;11.47;;;9.50;;
9997;SDS011;5038;53.064;8.624;2023-03-23T05:28:55;10.67;;;9.60;;
9997;SDS011;5038;53.064;8.624;2023-03-23T05:31:36;10.07;;;9.17;;
9997;SDS011;5038;53.064;8.624;2023-03-23T05:34:03;11.57;;;10.00;;
9997;SDS011;5038;53.064;8.624;2023-03-23T05:36:37;10.17;;;9.17;;
9997;SDS011;5038;53.064;8.624;2023-03-23T05:39:09;10.40;;;9.40;;
9997;SDS011;5038;53.064;8.624;2023-03-23T05:42:10;11.27;;;10.27;;
9997;SDS011;5038;53.064;8.624;2023-03-23T05:45:00;11.43;;;10.30;;
9997;SDS011;5038;53.064;8.624;2023-03-23T05:47:27;11.97;;;10.87;;
9997;SDS011;5038;53.064;8.624;2023-03-23T05:50:00;11.37;;;10.37;;
9997;SDS011;5038;53.064;8.624;2023-03-23T05:52:29;10.93;;;9.90;;
9997;SDS011;5038;53.064;8.624;2023-03-23T05:54:59;12.80;;;11.50;;
9997;SDS011;5038;53.064;8.624;2023-03-23T05:57:26;11.30;;;10.20;;
9997;SDS011;5038;53.064;8.624;2023-03-23T06:00:05;11.80;;;10.70;;
9997;SDS011;5038;53.064;8.624;2023-03-23T06:02:46;11.63;;;10.50;;
9997;SDS011;5038;53.064;8.624;2023-03-23T06:05:25;11.77;;;10.67;;
9997;SDS011;5038;53.064;8.624;2023-03-23T06:07:54;12.40;;;11.10;;
9997;SDS011;5038;53.064;8.624;2023-03-23T06:10:22;12.63;;;11.43;;
9997;SDS011;5038;53.064;8.624;2023-03-23T06:12:54;11.43;;;10.33;;
9997;SDS011;5038;53.064;8.624;2023-03-23T06:15:30;12.20;;;11.00;;
9997;SDS011;5038;53.064;8.624;2023-03-23T06:17:58;10.67;;;9.67;;
9997;SDS011;5038;53.064;8.624;2023-03-23T06:20:33;11.90;;;10.70;;
9997;SDS011;5038;53.064;8.624;2023-03-23T06:23:12;12.43;;;10.60;;
9997;SDS011;5038;53.064;8.624;2023-03-23T06:25:41;11.60;;;10.60;;
9997;SDS011;5038;53.064;8.624;2023-03-23T06:28:10;10.90;;;10.00;;
9997;SDS011;5038;53.064;8.624;2023-03-23T06:30:42;14.30;;;9.87;;
9997;SDS011;5038;53.064;8.624;2023-03-23T06:33:10;10.50;;;9.50;;
9997;SDS011;5038;53.064;8.624;2023-03-23T06:35:57;9.57;;;8.60;;
9997;SDS011;5038;53.064;8.624;2023-03-23T06:38:38;10.70;;;9.70;;
9997;SDS011;5038;53.064;8.624;2023-03-23T06:41:06;10.00;;;8.97;;
9997;SDS011;5038;53.064;8.624;2023-03-23T06:43:34;12.07;;;9.80;;
9997;SDS011;5038;53.064;8.624;2023-03-23T06:46:24;10.43;;;9.07;;
9997;SDS011;5038;53.064;8.624;2023-03-23T06:48:51;9.90;;;9.00;;
9997;SDS011;5038;53.064;8.624;2023-03-23T06:51:25;10.90;;;9.20;;
9997;SDS011;5038;53.064;8.624;2023-03-23T06:53:54;10.27;;;9.37;;
9997;SDS011;5038;53.064;8.624;2023-03-23T06:56:23;10.53;;;9.50;;
9997;SDS011;5038;53.064;8.624;2023-03-23T06:58:51;11.93;;;10.70;;
9997;SDS011;5038;53.064;8.624;2023-03-23T07:01:20;12.07;;;11.00;;
9997;SDS011;5038;53.064;8.624;2023-03-23T07:03:56;13.33;;;12.07;;
9997;SDS011;5038;53.064;8.624;2023-03-23T07:06:35;14.17;;;12.00;;
9997;SDS011;5038;53.064;8.624;2023-03-23T07:09:05;12.70;;;11.50;;
9997;SDS011;5038;53.064;8.624;2023-03-23T07:11:34;13.50;;;12.20;;
9997;SDS011;5038;53.064;8.624;2023-03-23T07:14:15;13.40;;;12.30;;
9997;SDS011;5038;53.064;8.624;2023-03-23T07:16:43;14.30;;;13.07;;
9997;SDS011;5038;53.064;8.624;2023-03-23T07:19:11;15.83;;;13.80;;
9997;SDS011;5038;53.064;8.624;2023-03-23T07:21:39;15.03;;;13.63;;
9997;SDS011;5038;53.064;8.624;2023-03-23T07:24:09;11.17;;;10.10;;
9997;SDS011;5038;53.064;8.624;2023-03-23T07:26:59;9.60;;;8.70;;
9997;SDS011;5038;53.064;8.624;2023-03-23T07:29:28;8.00;;;7.20;;
9997;SDS011;5038;53.064;8.624;2023-03-23T07:32:05;8.50;;;7.37;;
9997;SDS011;5038;53.064;8.624;2023-03-23T07:34:38;6.80;;;6.10;;
9997;SDS011;5038;53.064;8.624;2023-03-23T07:37:36;9.00;;;5.80;;
9997;SDS011;5038;53.064;8.624;2023-03-23T07:40:07;7.87;;;4.50;;
9997;SDS011;5038;53.064;8.624;2023-03-23T07:42:36;5.77;;;3.93;;
9997;SDS011;5038;53.064;8.624;2023-03-23T07:45:10;6.60;;;3.93;;
9997;SDS011;5038;53.064;8.624;2023-03-23T07:47:48;6.80;;;4.30;;
9997;SDS011;5038;53.064;8.624;2023-03-23T07:50:23;7.50;;;5.20;;
9997;SDS011;5038;53.064;8.624;2023-03-23T07:53:12;6.20;;;3.90;;
9997;SDS011;5038;53.064;8.624;2023-03-23T07:56:12;5.87;;;3.60;;
9997;SDS011;5038;53.064;8.624;2023-03-23T07:58:52;7.47;;;3.50;;
9997;SDS011;5038;53.064;8.624;2023-03-23T08:01:19;7.50;;;4.13;;
9997;SDS011;5038;53.064;8.624;2023-03-23T08:12:52;7.83;;;4.00;;
9997;SDS011;5038;53.064;8.624;2023-03-23T08:15:47;6.20;;;3.50;;
9997;SDS011;5038;53.064;8.624;2023-03-23T08:18:23;5.83;;;3.43;;
9997;SDS011;5038;53.064;8.624;2023-03-23T08:21:07;7.27;;;3.40;;
9997;SDS011;5038;53.064;8.624;2023-03-23T08:23:48;9.07;;;3.83;;
9997;SDS011;5038;53.064;8.624;2023-03-23T08:26:26;7.60;;;4.07;;
9997;SDS011;5038;53.064;8.624;2023-03-23T08:29:14;6.70;;;3.53;;
9997;SDS011;5038;53.064;8.624;2023-03-23T08:31:50;8.20;;;3.50;;
9997;SDS011;5038;53.064;8.624;2023-03-23T08:34:37;10.17;;;4.53;;
9997;SDS011;5038;53.064;8.624;2023-03-23T08:37:33;8.27;;;3.60;;
9997;SDS011;5038;53.064;8.624;2023-03-23T08:40:32;8.80;;;3.70;;
9997;SDS011;5038;53.064;8.624;2023-03-23T08:43:18;9.17;;;4.37;;
9997;SDS011;5038;53.064;8.624;2023-03-23T08:46:09;8.43;;;4.30;;
9997;SDS011;5038;53.064;8.624;2023-03-23T08:48:59;12.00;;;4.50;;
9997;SDS011;5038;53.064;8.624;2023-03-23T08:51:55;9.83;;;4.83;;
9997;SDS011;5038;53.064;8.624;2023-03-23T08:54:47;11.63;;;5.50;;
9997;SDS011;5038;53.064;8.624;2023-03-23T08:57:37;12.33;;;4.77;;
9997;SDS011;5038;53.064;8.624;2023-03-23T09:00:24;11.23;;;5.47;;
9997;SDS011;5038;53.064;8.624;2023-03-23T09:03:05;12.70;;;5.17;;
9997;SDS011;5038;53.064;8.624;2023-03-23T09:05:58;11.20;;;5.07;;
9997;SDS011;5038;53.064;8.624;2023-03-23T09:08:35;12.30;;;6.10;;
9997;SDS011;5038;53.064;8.624;2023-03-23T09:11:03;10.80;;;7.70;;
9997;SDS011;5038;53.064;8.624;2023-03-23T09:13:32;12.73;;;5.90;;
9997;SDS011;5038;53.064;8.624;2023-03-23T09:15:59;9.47;;;5.10;;
9997;SDS011;5038;53.064;8.624;2023-03-23T09:18:28;13.30;;;5.80;;
9997;SDS011;5038;53.064;8.624;2023-03-23T09:20:56;8.23;;;4.50;;
9997;SDS011;5038;53.064;8.624;2023-03-23T09:23:23;11.17;;;5.10;;
9997;SDS011;5038;53.064;8.624;2023-03-23T09:25:50;11.90;;;5.30;;
9997;SDS011;5038;53.064;8.624;2023-03-23T09:28:18;9.17;;;5.10;;
9997;SDS011;5038;53.064;8.624;2023-03-23T09:30:46;11.60;;;5.30;;
9997;SDS011;5038;53.064;8.624;2023-03-23T09:33:15;10.30;;;5.33;;
9997;SDS011;5038;53.064;8.624;2023-03-23T09:35:43;12.63;;;5.13;;
9997;SDS011;5038;53.064;8.624;2023-03-23T09:38:10;8.67;;;4.60;;
9997;SDS011;5038;53.064;8.624;2023-03-23T09:40:41;11.07;;;4.90;;
9997;SDS011;5038;53.064;8.624;2023-03-23T09:43:18;13.83;;;5.10;;
9997;SDS011;5038;53.064;8.624;2023-03-23T09:45:55;8.07;;;4.30;;
9997;SDS011;5038;53.064;8.624;2023-03-23T09:48:36;11.40;;;4.37;;
9997;SDS011;5038;53.064;8.624;2023-03-23T09:51:14;10.33;;;4.60;;
9997;SDS011;5038;53.064;8.624;2023-03-23T09:53:55;9.77;;;4.83;;
9997;SDS011;5038;53.064;8.624;2023-03-23T09:56:28;9.97;;;4.27;;
9997;SDS011;5038;53.064;8.624;2023-03-23T09:58:58;8.20;;;4.07;;
9997;SDS011;5038;53.064;8.624;2023-03-23T10:01:31;10.03;;;4.93;;
9997;SDS011;5038;53.064;8.624;2023-03-23T10:04:03;10.77;;;4.80;;
9997;SDS011;5038;53.064;8.624;2023-03-23T10:06:37;12.87;;;4.73;;
9997;SDS011;5038;53.064;8.624;2023-03-23T10:09:05;10.97;;;4.80;;
9997;SDS011;5038;53.064;8.624;2023-03-23T10:11:35;9.43;;;4.73;;
9997;SDS011;5038;53.064;8.624;2023-03-23T10:14:22;11.60;;;5.07;;
9997;SDS011;5038;53.064;8.624;2023-03-23T10:17:09;11.43;;;5.20;;
9997;SDS011;5038;53.064;8.624;2023-03-23T10:19:43;10.27;;;5.87;;
9997;SDS011;5038;53.064;8.624;2023-03-23T10:22:17;10.27;;;5.17;;
9997;SDS011;5038;53.064;8.624;2023-03-23T10:24:50;12.77;;;5.50;;
9997;SDS011;5038;53.064;8.624;2023-03-23T10:27:24;9.80;;;5.27;;
9997;SDS011;5038;53.064;8.624;2023-03-23T10:29:57;11.60;;;5.80;;
9997;SDS011;5038;53.064;8.624;2023-03-23T10:32:37;8.47;;;5.03;;
9997;SDS011;5038;53.064;8.624;2023-03-23T10:35:10;11.00;;;5.50;;
9997;SDS011;5038;53.064;8.624;2023-03-23T10:37:43;10.53;;;5.30;;
9997;SDS011;5038;53.064;8.624;2023-03-23T10:40:15;12.60;;;6.20;;
9997;SDS011;5038;53.064;8.624;2023-03-23T10:42:45;11.40;;;5.80;;
9997;SDS011;5038;53.064;8.624;2023-03-23T10:45:16;17.00;;;5.53;;
9997;SDS011;5038;53.064;8.624;2023-03-23T10:47:48;8.13;;;4.60;;
9997;SDS011;5038;53.064;8.624;2023-03-23T10:50:22;11.00;;;5.20;;
9997;SDS011;5038;53.064;8.624;2023-03-23T10:52:54;10.50;;;4.53;;
9997;SDS011;5038;53.064;8.624;2023-03-23T10:55:23;9.17;;;5.03;;
9997;SDS011;5038;53.064;8.624;2023-03-23T10:58:02;9.57;;;4.40;;
9997;SDS011;5038;53.064;8.624;2023-03-23T11:00:30;10.63;;;4.60;;
9997;SDS011;5038;53.064;8.624;2023-03-23T11:03:00;9.90;;;4.50;;
9997;SDS011;5038;53.064;8.624;2023-03-23T11:05:32;8.70;;;4.57;;
9997;SDS011;5038;53.064;8.624;2023-03-23T11:08:04;11.40;;;5.27;;
9997;SDS011;5038;53.064;8.624;2023-03-23T11:10:39;9.90;;;4.40;;
9997;SDS011;5038;53.064;8.624;2023-03-23T11:13:10;17.13;;;5.13;;
9997;SDS011;5038;53.064;8.624;2023-03-23T11:15:40;8.97;;;4.27;;
9997;SDS011;5038;53.064;8.624;2023-03-23T11:18:10;10.20;;;4.47;;
9997;SDS011;5038;53.064;8.624;2023-03-23T11:20:39;9.87;;;4.63;;
9997;SDS011;5038;53.064;8.624;2023-03-23T11:23:17;10.47;;;4.33;;
9997;SDS011;5038;53.064;8.624;2023-03-23T11:25:52;9.13;;;4.60;;
9997;SDS011;5038;53.064;8.624;2023-03-23T11:28:21;16.63;;;5.07;;
9997;SDS011;5038;53.064;8.624;2023-03-23T11:30:54;9.63;;;4.80;;
9997;SDS011;5038;53.064;8.624;2023-03-23T11:33:23;11.70;;;4.20;;
9997;SDS011;5038;53.064;8.624;2023-03-23T11:35:51;10.60;;;5.07;;
9997;SDS011;5038;53.064;8.624;2023-03-23T11:38:22;10.03;;;4.40;;
9997;SDS011;5038;53.064;8.624;2023-03-23T11:40:52;8.70;;;4.20;;
9997;SDS011;5038;53.064;8.624;2023-03-23T11:43:20;7.97;;;4.27;;
9997;SDS011;5038;53.064;8.624;2023-03-23T11:45:51;10.73;;;4.60;;
9997;SDS011;5038;53.064;8.624;2023-03-23T11:48:27;10.40;;;4.90;;
9997;SDS011;5038;53.064;8.624;2023-03-23T11:51:01;8.40;;;5.40;;
9997;SDS011;5038;53.064;8.624;2023-03-23T11:53:40;8.63;;;5.73;;
9997;SDS011;5038;53.064;8.624;2023-03-23T11:56:15;9.77;;;5.70;;
9997;SDS011;5038;53.064;8.624;2023-03-23T11:58:50;10.40;;;5.40;;
9997;SDS011;5038;53.064;8.624;2023-03-23T12:04:29;9.30;;;4.50;;
9997;SDS011;5038;53.064;8.624;2023-03-23T12:07:08;5.90;;;3.87;;
9997;SDS011;5038;53.064;8.624;2023-03-23T12:09:46;7.20;;;5.47;;
9997;SDS011;5038;53.064;8.624;2023-03-23T12:12:22;7.23;;;4.20;;
9997;SDS011;5038;53.064;8.624;2023-03-23T12:15:02;6.07;;;4.03;;
9997;SDS011;5038;53.064;8.624;2023-03-23T12:17:39;9.80;;;4.00;;
9997;SDS011;5038;53.064;8.624;2023-03-23T12:20:15;6.40;;;3.50;;
9997;SDS011;5038;53.064;8.624;2023-03-23T12:22:55;5.50;;;3.33;;
9997;SDS011;5038;53.064;8.624;2023-03-23T12:25:40;6.80;;;3.80;;
9997;SDS011;5038;53.064;8.624;2023-03-23T12:28:17;6.00;;;3.50;;
9997;SDS011;5038;53.064;8.624;2023-03-23T12:30:56;5.77;;;2.63;;
9997;SDS011;5038;53.064;8.624;2023-03-23T12:36:20;5.43;;;2.67;;
9997;SDS011;5038;53.064;8.624;2023-03-23T12:39:00;5.27;;;2.80;;
9997;SDS011;5038;53.064;8.624;2023-03-23T12:41:40;6.10;;;2.87;;
9997;SDS011;5038;53.064;8.624;2023-03-23T12:44:13;5.47;;;3.23;;
9997;SDS011;5038;53.064;8.624;2023-03-23T12:46:50;6.50;;;3.50;;
9997;SDS011;5038;53.064;8.624;2023-03-23T12:49:34;13.80;;;6.10;;
9997;SDS011;5038;53.064;8.624;2023-03-23T12:52:09;12.30;;;5.77;;
9997;SDS011;5038;53.064;8.624;2023-03-23T12:54:40;8.07;;;3.90;;
9997;SDS011;5038;53.064;8.624;2023-03-23T12:57:18;7.23;;;3.20;;
9997;SDS011;5038;53.064;8.624;2023-03-23T12:59:53;6.23;;;3.23;;
9997;SDS011;5038;53.064;8.624;2023-03-23T13:02:25;6.13;;;3.50;;
9997;SDS011;5038;53.064;8.624;2023-03-23T13:04:57;7.67;;;2.83;;
9997;SDS011;5038;53.064;8.624;2023-03-23T13:07:29;7.20;;;3.30;;
9997;SDS011;5038;53.064;8.624;2023-03-23T13:10:01;5.43;;;3.50;;
9997;SDS011;5038;53.064;8.624;2023-03-23T13:12:33;5.73;;;3.40;;
9997;SDS011;5038;53.064;8.624;2023-03-23T13:15:06;4.77;;;3.00;;
9997;SDS011;5038;53.064;8.624;2023-03-23T13:17:46;5.93;;;2.80;;
9997;SDS011;5038;53.064;8.624;2023-03-23T13:23:26;6.60;;;3.17;;
9997;SDS011;5038;53.064;8.624;2023-03-23T13:25:59;6.60;;;3.20;;
9997;SDS011;5038;53.064;8.624;2023-03-23T13:28:32;5.30;;;3.20;;
9997;SDS011;5038;53.064;8.624;2023-03-23T13:31:15;6.20;;;3.33;;
9997;SDS011;5038;53.064;8.624;2023-03-23T13:33:45;5.90;;;3.60;;
9997;SDS011;5038;53.064;8.624;2023-03-23T13:36:19;5.50;;;2.10;;
9997;SDS011;5038;53.064;8.624;2023-03-23T13:38:53;5.40;;;2.30;;
9997;SDS011;5038;53.064;8.624;2023-03-23T13:41:20;8.07;;;2.67;;
9997;SDS011;5038;53.064;8.624;2023-03-23T13:43:49;6.00;;;2.80;;
9997;SDS011;5038;53.064;8.624;2023-03-23T13:46:28;7.03;;;2.67;;
9997;SDS011;5038;53.064;8.624;2023-03-23T13:49:04;7.30;;;2.43;;
9997;SDS011;5038;53.064;8.624;2023-03-23T13:51:51;6.10;;;2.47;;
9997;SDS011;5038;53.064;8.624;2023-03-23T13:54:41;4.53;;;1.80;;
9997;SDS011;5038;53.064;8.624;2023-03-23T14:00:27;7.30;;;2.30;;
9997;SDS011;5038;53.064;8.624;2023-03-23T14:03:09;4.57;;;1.93;;
9997;SDS011;5038;53.064;8.624;2023-03-23T14:05:39;5.90;;;1.80;;
9997;SDS011;5038;53.064;8.624;2023-03-23T14:08:12;5.43;;;1.80;;
9997;SDS011;5038;53.064;8.624;2023-03-23T14:10:49;5.90;;;2.30;;
9997;SDS011;5038;53.064;8.624;2023-03-23T14:13:23;7.40;;;3.23;;
9997;SDS011;5038;53.064;8.624;2023-03-23T14:15:57;5.27;;;2.53;;
9997;SDS011;5038;53.064;8.624;2023-03-23T14:18:29;4.40;;;1.87;;
9997;SDS011;5038;53.064;8.624;2023-03-23T14:20:59;6.33;;;2.40;;
9997;SDS011;5038;53.064;8.624;2023-03-23T14:23:31;6.90;;;2.70;;
9997;SDS011;5038;53.064;8.624;2023-03-23T14:25:59;4.10;;;2.00;;
9997;SDS011;5038;53.064;8.624;2023-03-23T14:28:32;7.97;;;2.90;;
9997;SDS011;5038;53.064;8.624;2023-03-23T14:31:08;6.50;;;2.87;;
9997;SDS011;5038;53.064;8.624;2023-03-23T14:33:42;7.70;;;3.30;;
9997;SDS011;5038;53.064;8.624;2023-03-23T14:36:09;9.20;;;3.97;;
9997;SDS011;5038;53.064;8.624;2023-03-23T14:38:37;7.30;;;3.10;;
9997;SDS011;5038;53.064;8.624;2023-03-23T14:41:04;6.13;;;3.37;;
9997;SDS011;5038;53.064;8.624;2023-03-23T14:43:33;6.83;;;3.07;;
9997;SDS011;5038;53.064;8.624;2023-03-23T14:46:02;7.67;;;3.40;;
9997;SDS011;5038;53.064;8.624;2023-03-23T14:48:35;8.47;;;3.67;;
9997;SDS011;5038;53.064;8.624;2023-03-23T14:51:03;7.00;;;3.83;;
9997;SDS011;5038;53.064;8.624;2023-03-23T14:53:33;8.10;;;3.67;;
9997;SDS011;5038;53.064;8.624;2023-03-23T14:56:03;6.80;;;3.30;;
9997;SDS011;5038;53.064;8.624;2023-03-23T14:58:36;5.90;;;3.60;;
9997;SDS011;5038;53.064;8.624;2023-03-23T15:01:05;9.37;;;3.83;;
9997;SDS011;5038;53.064;8.624;2023-03-23T15:03:38;8.13;;;4.00;;
9997;SDS011;5038;53.064;8.624;2023-03-23T15:06:11;7.60;;;3.83;;
9997;SDS011;5038;53.064;8.624;2023-03-23T15:08:41;10.40;;;4.07;;
9997;SDS011;5038;53.064;8.624;2023-03-23T15:11:11;9.27;;;4.87;;
9997;SDS011;5038;53.064;8.624;2023-03-23T15:13:49;8.50;;;3.47;;
9997;SDS011;5038;53.064;8.624;2023-03-23T15:16:21;7.40;;;3.57;;
9997;SDS011;5038;53.064;8.624;2023-03-23T15:18:52;8.23;;;2.80;;
9997;SDS011;5038;53.064;8.624;2023-03-23T15:21:26;5.60;;;2.53;;
9997;SDS011;5038;53.064;8.624;2023-03-23T15:23:54;5.90;;;3.03;;
9997;SDS011;5038;53.064;8.624;2023-03-23T15:26:29;8.60;;;2.87;;
9997;SDS011;5038;53.064;8.624;2023-03-23T15:29:12;6.87;;;2.60;;
9997;SDS011;5038;53.064;8.624;2023-03-23T15:31:45;7.63;;;3.03;;
9997;SDS011;5038;53.064;8.624;2023-03-23T15:34:23;7.33;;;3.00;;
9997;SDS011;5038;53.064;8.624;2023-03-23T15:36:55;7.73;;;2.80;;
9997;SDS011;5038;53.064;8.624;2023-03-23T15:39:24;8.67;;;3.10;;
9997;SDS011;5038;53.064;8.624;2023-03-23T15:41:52;7.03;;;2.90;;
9997;SDS011;5038;53.064;8.624;2023-03-23T15:44:22;7.63;;;2.60;;
9997;SDS011;5038;53.064;8.624;2023-03-23T15:46:53;8.80;;;2.63;;
9997;SDS011;5038;53.064;8.624;2023-03-23T15:49:29;9.33;;;3.33;;
9997;SDS011;5038;53.064;8.624;2023-03-23T15:51:56;9.07;;;2.90;;
9997;SDS011;5038;53.064;8.624;2023-03-23T15:54:23;6.90;;;2.77;;
9997;SDS011;5038;53.064;8.624;2023-03-23T15:56:55;10.20;;;2.50;;
9997;SDS011;5038;53.064;8.624;2023-03-23T15:59:22;6.27;;;2.80;;
9997;SDS011;5038;53.064;8.624;2023-03-23T16:01:50;7.90;;;2.60;;
9997;SDS011;5038;53.064;8.624;2023-03-23T16:04:20;6.33;;;2.60;;
9997;SDS011;5038;53.064;8.624;2023-03-23T16:06:48;4.50;;;2.07;;